Time;durP1;ratioP1;P1;durP2;ratioP2;P2;SDS_P1;SDS_P2;PMS_P1;PMS_P2;Temp;Humidity;BMP_temperature;BMP_pressure;BME280_temperature;BME280_humidity;BME280_pressure;Samples;Min_cycle;Max_cycle;Signal;HPM_P1;HPM_P2
2023/05/15 00:01:24;;;;;;;5.90;5.40;;;18.50;78.10;;;;;;4940873;29;20563;-83
2023/05/15 00:05:06;;;;;;;5.73;5.23;;;18.40;79.40;;;;;;4912084;29;20494;-83
2023/05/15 00:08:59;;;;;;;6.30;5.37;;;18.40;80.40;;;;;;4884513;29;20467;-83
2023/05/15 00:11:54;;;;;;;6.23;5.63;;;18.30;82.30;;;;;;4926039;29;20465;-84
2023/05/15 00:15:02;;;;;;;6.27;5.70;;;18.40;82.90;;;;;;4927240;29;20540;-84
2023/05/15 00:18:32;;;;;;;6.40;5.77;;;18.30;83.40;;;;;;4949319;28;20478;-83
2023/05/15 00:21:33;;;;;;;7.00;6.40;;;18.40;84.10;;;;;;4930129;29;21306;-82
2023/05/15 00:24:18;;;;;;;7.70;6.63;;;18.20;85.50;;;;;;4913612;29;20601;-82
2023/05/15 00:27:31;;;;;;;8.33;6.17;;;18.10;86.70;;;;;;4851513;29;20471;-81
2023/05/15 00:30:38;;;;;;;8.90;6.43;;;18.10;88.00;;;;;;4856780;29;20484;-81
2023/05/15 00:36:25;;;;;;;9.57;7.93;;;17.90;90.00;;;;;;4864822;29;20498;-83
2023/05/15 00:39:07;;;;;;;13.40;7.10;;;17.80;90.90;;;;;;4864544;29;20472;-84
2023/05/15 00:42:19;;;;;;;7.07;6.47;;;17.70;91.70;;;;;;4872427;29;21044;-84
2023/05/15 00:47:58;;;;;;;8.00;7.30;;;17.60;93.40;;;;;;4848497;29;20473;-85
2023/05/15 00:50:44;;;;;;;;;;;;;;;;;;;;;
2023/05/15 00:53:49;;;;;;;8.50;7.60;;;17.40;95.20;;;;;;4858378;29;20481;-81
2023/05/15 00:56:52;;;;;;;13.70;8.00;;;17.40;96.10;;;;;;4833290;29;20590;-85
2023/05/15 00:59:47;;;;;;;10.10;8.37;;;17.30;96.80;;;;;;4936938;29;20474;-83
2023/05/15 01:06:06;;;;;;;11.13;8.47;;;17.30;98.10;;;;;;4938592;29;20470;-83
2023/05/15 01:09:20;;;;;;;;;;;;;;;;;;;;;
2023/05/15 01:12:02;;;;;;;15.83;9.20;;;17.10;99.40;;;;;;4939733;29;20462;-85
2023/05/15 01:14:47;;;;;;;14.43;9.00;;;17.10;99.90;;;;;;4919458;29;20515;-84
2023/05/15 01:17:35;;;;;;;11.23;8.77;;;17.00;99.90;;;;;;4929190;29;20445;-83
2023/05/15 01:20:24;;;;;;;13.30;9.63;;;17.00;99.90;;;;;;4921728;29;20648;-83
2023/05/15 01:23:37;;;;;;;13.13;8.90;;;16.90;99.90;;;;;;4921795;29;20568;-82
2023/05/15 01:26:45;;;;;;;11.97;9.23;;;16.90;99.90;;;;;;4939388;29;20507;-82
2023/05/15 01:29:39;;;;;;;11.83;9.20;;;16.90;99.90;;;;;;4929292;29;20455;-82
2023/05/15 01:32:23;;;;;;;12.03;9.27;;;16.90;99.90;;;;;;4939590;29;20500;-82
2023/05/15 01:34:50;;;;;;;14.43;9.33;;;16.90;99.90;;;;;;4930533;29;20453;-83
2023/05/15 01:37:23;;;;;;;11.03;8.80;;;16.90;99.90;;;;;;4926995;29;20498;-82
2023/05/15 01:39:56;;;;;;;9.73;8.60;;;16.80;99.90;;;;;;4921275;29;20476;-84
2023/05/15 01:42:29;;;;;;;9.53;8.03;;;16.80;99.90;;;;;;4916463;29;20585;-84
2023/05/15 01:45:00;;;;;;;11.83;9.70;;;16.80;99.90;;;;;;4920400;29;20493;-84
2023/05/15 01:47:35;;;;;;;11.03;9.63;;;16.80;99.90;;;;;;4936281;29;20488;-82
2023/05/15 01:50:05;;;;;;;15.40;9.73;;;16.80;99.90;;;;;;4915882;29;20485;-83
2023/05/15 01:52:35;;;;;;;14.13;10.37;;;16.80;99.90;;;;;;4925456;29;20485;-84
2023/05/15 01:55:05;;;;;;;14.07;11.67;;;16.80;99.90;;;;;;4920046;29;20465;-84
2023/05/15 01:57:32;;;;;;;18.13;11.87;;;16.70;99.90;;;;;;4936814;29;20462;-84
2023/05/15 02:00:00;;;;;;;16.97;10.73;;;16.70;99.90;;;;;;4939789;29;20584;-84
2023/05/15 02:02:29;;;;;;;20.83;12.00;;;16.60;99.90;;;;;;4933629;29;20504;-83
2023/05/15 02:04:57;;;;;;;21.60;13.77;;;16.60;99.90;;;;;;4934955;29;21645;-84
2023/05/15 02:07:26;;;;;;;24.50;12.57;;;16.60;99.90;;;;;;4936006;29;20949;-82
2023/05/15 02:09:54;;;;;;;25.33;15.50;;;16.70;99.90;;;;;;4934768;29;20533;-83
2023/05/15 02:12:22;;;;;;;23.23;12.87;;;16.70;99.90;;;;;;4914125;29;20496;-82
2023/05/15 02:14:50;;;;;;;25.10;14.87;;;16.70;99.90;;;;;;4918701;29;20999;-84
2023/05/15 02:17:18;;;;;;;22.30;12.83;;;16.70;99.90;;;;;;4936997;29;20485;-83
2023/05/15 02:19:46;;;;;;;28.27;14.60;;;16.70;99.90;;;;;;4955051;29;20516;-83
2023/05/15 02:22:13;;;;;;;23.00;14.07;;;16.70;99.90;;;;;;4954783;29;20481;-83
2023/05/15 02:24:40;;;;;;;24.20;13.67;;;16.70;99.90;;;;;;4936849;29;20473;-84
2023/05/15 02:27:27;;;;;;;24.73;13.70;;;16.70;99.90;;;;;;4947001;29;20453;-84
2023/05/15 02:30:03;;;;;;;23.80;14.27;;;16.70;99.90;;;;;;4922142;29;20953;-84
2023/05/15 02:32:46;;;;;;;22.67;13.17;;;16.70;99.90;;;;;;4926335;29;20560;-84
2023/05/15 02:35:29;;;;;;;24.30;13.33;;;16.70;99.90;;;;;;4923921;29;20529;-84
2023/05/15 02:38:01;;;;;;;20.57;13.20;;;16.70;99.90;;;;;;4935944;29;20467;-84
2023/05/15 02:40:30;;;;;;;23.80;14.17;;;16.70;99.90;;;;;;4945310;29;20503;-84
2023/05/15 02:42:59;;;;;;;22.70;13.80;;;16.70;99.90;;;;;;4930680;29;21032;-84
2023/05/15 02:45:28;;;;;;;22.23;14.13;;;16.70;99.90;;;;;;4924497;29;20560;-85
2023/05/15 02:47:55;;;;;;;21.30;14.53;;;16.70;99.90;;;;;;4942069;29;21035;-84
2023/05/15 02:50:22;;;;;;;24.00;13.60;;;16.70;99.90;;;;;;4935221;29;20460;-85
2023/05/15 02:52:49;;;;;;;25.70;14.47;;;16.70;99.90;;;;;;4928697;29;20577;-83
2023/05/15 02:55:17;;;;;;;18.90;13.30;;;16.60;99.90;;;;;;4924601;29;20544;-84
2023/05/15 02:57:44;;;;;;;18.67;13.13;;;16.60;99.90;;;;;;4930089;29;20482;-82
2023/05/15 03:00:13;;;;;;;20.33;13.90;;;16.50;99.90;;;;;;4946595;29;20515;-84
2023/05/15 03:02:40;;;;;;;23.00;13.47;;;16.50;99.90;;;;;;4935136;29;20480;-83
2023/05/15 03:05:09;;;;;;;19.70;13.67;;;16.50;99.90;;;;;;4936105;29;20524;-83
2023/05/15 03:07:36;;;;;;;21.50;14.37;;;16.50;99.90;;;;;;4946219;29;20866;-84
2023/05/15 03:10:04;;;;;;;21.37;15.53;;;16.50;99.90;;;;;;4932485;29;20826;-84
2023/05/15 03:12:32;;;;;;;23.30;14.87;;;16.50;99.90;;;;;;4941071;29;20536;-84
2023/05/15 03:15:00;;;;;;;24.03;15.10;;;16.50;99.90;;;;;;4942977;29;20546;-84
2023/05/15 03:17:27;;;;;;;22.83;15.90;;;16.50;99.90;;;;;;4928026;29;20513;-84
2023/05/15 03:19:55;;;;;;;23.47;14.83;;;16.60;99.90;;;;;;4945735;29;20467;-84
2023/05/15 03:22:22;;;;;;;22.13;14.00;;;16.50;99.90;;;;;;4941593;29;20471;-84
2023/05/15 03:24:50;;;;;;;25.50;15.47;;;16.40;99.90;;;;;;4944594;29;20486;-83
2023/05/15 03:27:18;;;;;;;22.80;15.73;;;16.40;99.90;;;;;;4944223;29;20453;-84
2023/05/15 03:29:47;;;;;;;23.87;16.70;;;16.30;99.90;;;;;;4944465;29;20442;-83
2023/05/15 03:32:15;;;;;;;21.77;15.40;;;16.40;99.90;;;;;;4957967;28;20693;-83
2023/05/15 03:34:42;;;;;;;25.83;15.47;;;16.40;99.90;;;;;;4957454;28;20446;-84
2023/05/15 03:37:10;;;;;;;26.83;17.30;;;16.50;99.90;;;;;;4938119;29;20445;-84
2023/05/15 03:39:37;;;;;;;25.67;16.47;;;16.40;99.90;;;;;;4931342;29;20954;-82
2023/05/15 03:42:05;;;;;;;26.93;16.20;;;16.30;99.90;;;;;;4952139;29;20502;-84
2023/05/15 03:44:33;;;;;;;25.70;15.47;;;16.30;99.90;;;;;;4935780;29;20493;-83
2023/05/15 03:47:01;;;;;;;27.73;16.50;;;16.30;99.90;;;;;;4954256;28;20453;-83
2023/05/15 03:49:28;;;;;;;28.33;16.73;;;16.30;99.90;;;;;;4950541;28;20454;-84
2023/05/15 03:51:56;;;;;;;24.93;16.27;;;16.20;99.90;;;;;;4949354;28;20530;-85
2023/05/15 03:54:23;;;;;;;26.20;16.67;;;16.10;99.90;;;;;;4942539;28;20446;-83
2023/05/15 03:56:51;;;;;;;27.57;16.77;;;16.20;99.90;;;;;;4944798;28;20466;-83
2023/05/15 03:59:18;;;;;;;26.50;16.00;;;16.20;99.90;;;;;;4916713;29;20455;-83
2023/05/15 04:01:46;;;;;;;30.30;16.57;;;16.10;99.90;;;;;;4934796;29;20504;-83
2023/05/15 04:04:29;;;;;;;32.80;18.33;;;16.10;99.90;;;;;;4934884;29;20501;-84
2023/05/15 04:06:56;;;;;;;27.20;17.80;;;16.20;99.90;;;;;;4921509;29;20497;-83
2023/05/15 04:09:25;;;;;;;25.93;16.27;;;16.20;99.90;;;;;;4940325;29;20721;-83
2023/05/15 04:11:52;;;;;;;27.27;17.60;;;16.30;99.90;;;;;;4919061;29;20454;-83
2023/05/15 04:14:20;;;;;;;29.50;19.10;;;16.20;99.90;;;;;;4924922;29;20485;-84
2023/05/15 04:16:48;;;;;;;27.53;15.53;;;16.20;99.90;;;;;;4931662;29;20840;-83
2023/05/15 04:19:15;;;;;;;28.97;18.47;;;16.30;99.90;;;;;;4940032;29;20458;-83
2023/05/15 04:21:42;;;;;;;30.73;17.60;;;16.20;99.90;;;;;;4919798;29;20502;-83
2023/05/15 04:24:10;;;;;;;25.63;17.30;;;16.20;99.90;;;;;;4936491;29;20463;-84
2023/05/15 04:26:37;;;;;;;34.67;18.77;;;16.10;99.90;;;;;;4934594;29;20489;-84
2023/05/15 04:29:05;;;;;;;29.13;18.70;;;16.10;99.90;;;;;;4922747;29;20557;-84
2023/05/15 04:31:33;;;;;;;30.03;18.73;;;16.10;99.90;;;;;;4915780;29;20465;-84
2023/05/15 04:34:02;;;;;;;30.93;19.03;;;16.10;99.90;;;;;;4937556;29;20596;-84
2023/05/15 04:36:30;;;;;;;26.90;16.23;;;16.10;99.90;;;;;;4941597;29;20462;-84
2023/05/15 04:38:58;;;;;;;32.83;19.17;;;16.00;99.90;;;;;;4937726;29;20482;-84
2023/05/15 04:41:26;;;;;;;29.47;18.43;;;16.00;99.90;;;;;;4935567;29;20470;-84
2023/05/15 04:43:53;;;;;;;32.20;18.13;;;16.00;99.90;;;;;;4917613;29;20498;-83
2023/05/15 04:46:21;;;;;;;27.87;17.70;;;16.00;99.90;;;;;;4940523;29;20478;-83
2023/05/15 04:48:48;;;;;;;23.87;17.10;;;15.90;99.90;;;;;;4934811;29;20466;-84
2023/05/15 04:51:16;;;;;;;28.77;18.10;;;15.90;99.90;;;;;;4930783;29;20462;-85
2023/05/15 04:53:43;;;;;;;29.03;18.20;;;15.90;99.90;;;;;;4939119;29;20489;-84
2023/05/15 04:56:11;;;;;;;29.60;17.50;;;15.90;99.90;;;;;;4938054;29;20494;-84
2023/05/15 04:58:38;;;;;;;26.43;17.00;;;15.80;99.90;;;;;;4919897;29;20465;-83
2023/05/15 05:01:05;;;;;;;29.33;17.43;;;15.80;99.90;;;;;;4939722;29;20496;-83
2023/05/15 05:03:33;;;;;;;30.63;18.43;;;15.80;99.90;;;;;;4933797;29;20540;-82
2023/05/15 05:06:00;;;;;;;29.50;18.63;;;15.80;99.90;;;;;;4925616;29;20477;-83
2023/05/15 05:08:28;;;;;;;29.67;19.73;;;15.90;99.90;;;;;;4936434;29;20881;-83
2023/05/15 05:10:58;;;;;;;33.17;19.60;;;15.90;99.90;;;;;;4942366;29;20452;-83
2023/05/15 05:13:26;;;;;;;33.93;21.20;;;15.80;99.90;;;;;;4918348;29;20482;-83
2023/05/15 05:15:54;;;;;;;33.50;20.07;;;15.80;99.90;;;;;;4939490;29;20484;-84
2023/05/15 05:22:20;;;;;;;35.80;22.60;;;15.80;99.90;;;;;;4940047;29;20462;-84
2023/05/15 05:28:44;;;;;;;36.70;20.50;;;15.80;99.90;;;;;;4930228;29;20485;-85
2023/05/15 05:31:31;;;;;;;40.93;22.20;;;15.70;99.90;;;;;;4878072;29;20546;-85
2023/05/15 05:35:27;;;;;;;42.73;24.93;;;15.70;99.90;;;;;;4897747;29;20464;-85
2023/05/15 05:39:04;;;;;;;38.30;23.80;;;15.70;99.90;;;;;;4887537;29;20459;-85
2023/05/15 05:42:12;;;;;;;34.50;19.87;;;15.70;99.90;;;;;;4892023;29;20459;-82
2023/05/15 05:45:13;;;;;;;32.30;20.53;;;15.70;99.90;;;;;;4872308;29;20471;-84
2023/05/15 05:52:29;;;;;;;26.87;17.17;;;15.70;99.90;;;;;;4793593;29;20475;-82
2023/05/15 05:59:06;;;;;;;21.00;14.00;;;15.70;99.90;;;;;;4708853;30;20538;-84
2023/05/15 06:09:42;;;;;;;22.30;15.07;;;16.00;99.90;;;;;;4767774;30;20475;-84
2023/05/15 06:13:25;;;;;;;22.10;14.00;;;15.90;99.90;;;;;;4777884;30;20556;-84
2023/05/15 06:16:26;;;;;;;;;;;;;;;;;;;;;
2023/05/15 06:20:07;;;;;;;24.47;14.57;;;15.90;99.90;;;;;;4805604;29;20998;-84
2023/05/15 06:27:03;;;;;;;19.47;14.93;;;15.90;99.90;;;;;;4749996;29;20973;-83
2023/05/15 06:30:35;;;;;;;23.00;14.90;;;15.90;99.90;;;;;;4820956;29;20470;-84
2023/05/15 06:33:43;;;;;;;23.50;15.73;;;15.80;99.90;;;;;;4816865;29;20486;-84
2023/05/15 06:41:33;;;;;;;25.73;18.30;;;15.80;99.90;;;;;;5093157;27;20607;-84
2023/05/15 06:48:30;;;;;;;28.40;16.87;;;15.60;99.90;;;;;;4930200;28;21762;-83
2023/05/15 06:52:01;;;;;;;23.53;16.00;;;15.50;99.90;;;;;;4979629;28;20468;-83
2023/05/15 06:55:43;;;;;;;;;;;;;;;;;;;;;
2023/05/15 06:59:34;;;;;;;26.90;16.80;;;15.40;99.90;;;;;;4949978;29;20473;-81
2023/05/15 07:03:18;;;;;;;30.93;18.23;;;15.40;99.90;;;;;;4939841;28;20470;-84
2023/05/15 07:07:00;;;;;;;23.87;16.00;;;15.50;99.90;;;;;;4959868;28;20463;-83
2023/05/15 07:13:41;;;;;;;27.90;19.07;;;15.70;99.90;;;;;;4981811;28;20503;-83
2023/05/15 07:20:33;;;;;;;31.37;21.10;;;15.80;99.90;;;;;;4966407;28;20527;-84
2023/05/15 07:24:11;;;;;;;35.00;22.33;;;15.70;99.90;;;;;;5056187;28;20481;-84
2023/05/15 07:27:42;;;;;;;31.90;20.83;;;15.60;99.90;;;;;;5055514;28;20557;-84
2023/05/15 07:31:00;;;;;;;35.47;22.50;;;15.50;99.90;;;;;;5057186;28;20458;-83
2023/05/15 07:34:27;;;;;;;33.83;19.73;;;15.50;99.90;;;;;;5055182;28;21014;-83
2023/05/15 07:37:50;;;;;;;;;;;;;;;;;;;;;
2023/05/15 07:45:27;;;;;;;32.67;19.70;;;15.60;99.90;;;;;;5071154;28;20444;-85
2023/05/15 07:53:17;;;;;;;30.13;19.50;;;15.50;99.90;;;;;;4949336;28;20598;-83
2023/05/15 07:57:24;;;;;;;32.30;18.70;;;15.50;99.90;;;;;;4942747;28;20544;-82
2023/05/15 08:00:51;;;;;;;25.87;18.10;;;15.50;99.90;;;;;;4943194;28;20473;-82
2023/05/15 08:03:33;;;;;;;28.30;17.67;;;15.60;99.90;;;;;;4935123;28;21491;-85
2023/05/15 08:06:18;;;;;;;29.47;19.67;;;15.60;99.90;;;;;;4951483;28;20554;-82
2023/05/15 08:09:25;;;;;;;30.30;18.40;;;15.60;99.80;;;;;;4935178;28;20478;-82
2023/05/15 08:13:11;;;;;;;26.47;17.33;;;15.60;99.90;;;;;;4937992;28;20551;-84
2023/05/15 08:16:25;;;;;;;27.63;17.70;;;15.60;99.80;;;;;;4917176;28;20485;-85
2023/05/15 08:19:34;;;;;;;30.50;18.43;;;15.60;99.80;;;;;;4947350;28;20547;-85
2023/05/15 08:23:42;;;;;;;26.63;18.57;;;15.50;99.70;;;;;;4939978;28;20526;-83
2023/05/15 08:26:43;;;;;;;29.20;19.43;;;15.50;99.70;;;;;;5044454;28;20476;-81
2023/05/15 08:34:00;;;;;;;28.87;18.50;;;15.50;99.90;;;;;;5003533;28;20491;-84
2023/05/15 08:37:08;;;;;;;26.60;19.00;;;15.50;99.80;;;;;;5002956;28;21274;-85
2023/05/15 08:40:31;;;;;;;32.97;19.33;;;15.60;99.60;;;;;;5012197;28;20489;-82
2023/05/15 08:54:46;;;;;;;25.80;17.43;;;15.70;99.00;;;;;;4851723;29;21091;-82
2023/05/15 08:58:24;;;;;;;26.93;19.07;;;15.70;99.10;;;;;;4849363;29;20424;-83
2023/05/15 09:05:55;;;;;;;29.70;17.80;;;15.90;98.60;;;;;;4722946;30;20470;-86
2023/05/15 09:09:36;;;;;;;;;;;;;;;;;;;;;
2023/05/15 09:16:15;;;;;;;21.80;15.50;;;16.80;97.50;;;;;;4762543;29;20463;-83
2023/05/15 09:25:07;;;;;;;;;;;;;;;;;;;;;
2023/05/15 09:28:13;;;;;;;19.07;15.37;;;21.80;83.10;;;;;;4817089;29;20966;-84
2023/05/15 09:35:31;;;;;;;;;;;;;;;;;;;;;
2023/05/15 09:38:50;;;;;;;17.50;14.90;;;22.70;74.00;;;;;;5026924;28;20449;-84
2023/05/15 09:42:16;;;;;;;15.97;14.27;;;22.90;72.40;;;;;;5022696;28;20472;-84
2023/05/15 09:45:21;;;;;;;15.87;14.27;;;23.80;70.30;;;;;;5019703;28;20682;-84
2023/05/15 09:51:50;;;;;;;16.37;14.30;;;24.40;63.50;;;;;;5017274;28;20504;-85
2023/05/15 09:55:09;;;;;;;15.87;14.33;;;24.50;63.40;;;;;;5005975;28;20470;-85
2023/05/15 09:58:23;;;;;;;15.50;13.40;;;25.20;61.80;;;;;;5006865;28;20494;-82
2023/05/15 10:02:02;;;;;;;15.50;14.00;;;24.60;60.70;;;;;;5017757;28;20555;-82
2023/05/15 10:05:13;;;;;;;13.87;12.47;;;24.00;61.20;;;;;;4948617;28;20466;-83
2023/05/15 10:08:51;;;;;;;;;;;;;;;;;;;;;
2023/05/15 10:12:39;;;;;;;;;;;;;;;;;;;;;
2023/05/15 10:16:12;;;;;;;13.53;12.13;;;23.40;62.40;;;;;;5024033;28;21003;-83
2023/05/15 10:19:44;;;;;;;13.20;11.90;;;23.50;61.20;;;;;;5035240;28;20477;-82
2023/05/15 10:27:11;;;;;;;13.17;11.47;;;23.30;62.80;;;;;;5039863;28;20466;-84
2023/05/15 10:30:57;;;;;;;;;;;;;;;;;;;;;
2023/05/15 10:45:55;;;;;;;13.40;11.37;;;24.20;60.80;;;;;;4880290;28;20476;-85
2023/05/15 10:49:22;;;;;;;12.07;10.80;;;24.50;57.70;;;;;;4898415;28;20467;-84
2023/05/15 10:52:58;;;;;;;10.90;9.80;;;26.70;53.60;;;;;;4946669;28;20588;-83
2023/05/15 10:56:40;;;;;;;;;;;;;;;;;;;;;
2023/05/15 11:00:25;;;;;;;;;;;;;;;;;;;;;
2023/05/15 11:08:54;;;;;;;8.60;7.80;;;25.10;53.40;;;;;;5008011;28;20485;-85
2023/05/15 11:12:11;;;;;;;8.47;7.63;;;25.30;52.20;;;;;;4926376;29;20794;-85
2023/05/15 11:15:13;;;;;;;;;;;;;;;;;;;;;
2023/05/15 11:19:02;;;;;;;11.97;10.03;;;25.30;50.80;;;;;;4868226;29;20447;-84
2023/05/15 11:22:40;;;;;;;10.40;9.40;;;24.90;50.90;;;;;;4845372;29;20472;-84
2023/05/15 11:26:04;;;;;;;10.47;9.47;;;25.20;51.30;;;;;;4865809;29;20600;-81
2023/05/15 11:29:35;;;;;;;10.43;9.40;;;25.40;51.30;;;;;;4895965;29;21448;-84
2023/05/15 11:33:01;;;;;;;;;;;;;;;;;;;;;
2023/05/15 11:36:30;;;;;;;;;;;;;;;;;;;;;
2023/05/15 11:40:12;;;;;;;10.13;9.00;;;25.80;49.80;;;;;;4922655;29;20473;-84
2023/05/15 11:44:07;;;;;;;;;;;;;;;;;;;;;
2023/05/15 12:02:13;;;;;;;5.50;4.90;;;26.20;44.70;;;;;;4867814;29;20606;-84
2023/05/15 12:09:31;;;;;;;10.60;7.77;;;25.50;43.90;;;;;;4831890;29;20609;-83
2023/05/15 12:13:02;;;;;;;7.23;6.53;;;25.60;46.40;;;;;;4823310;29;20574;-82
2023/05/15 12:20:07;;;;;;;6.57;6.07;;;25.80;44.70;;;;;;4904851;29;20493;-83
2023/05/15 12:23:33;;;;;;;7.03;6.33;;;25.60;43.90;;;;;;4907229;29;21556;-85
2023/05/15 12:26:45;;;;;;;6.43;5.83;;;26.10;44.10;;;;;;4845257;29;20574;-84
2023/05/15 12:30:13;;;;;;;6.37;5.40;;;26.10;43.10;;;;;;4871599;29;20462;-83
2023/05/15 12:37:08;;;;;;;8.33;7.50;;;26.10;42.40;;;;;;4772859;29;20537;-85
2023/05/15 12:40:45;;;;;;;;;;;;;;;;;;;;;
2023/05/15 12:44:56;;;;;;;;;;;;;;;;;;;;;
2023/05/15 12:47:50;;;;;;;9.87;8.00;;;25.40;45.30;;;;;;4858668;29;20471;-85
2023/05/15 12:51:20;;;;;;;12.00;7.80;;;25.60;46.00;;;;;;4817384;29;20494;-85
2023/05/15 12:58:43;;;;;;;8.07;7.37;;;26.70;44.30;;;;;;4823887;29;20523;-83
2023/05/15 13:06:27;;;;;;;6.50;5.90;;;25.90;44.80;;;;;;4857270;29;20451;-84
2023/05/15 13:17:38;;;;;;;9.37;7.37;;;26.00;43.80;;;;;;4920459;29;20674;-84
2023/05/15 13:21:12;;;;;;;8.17;6.63;;;26.00;44.70;;;;;;4871570;29;20493;-84
2023/05/15 13:24:05;;;;;;;7.67;6.33;;;26.10;44.00;;;;;;4850582;29;20496;-83
2023/05/15 13:38:19;;;;;;;9.07;7.53;;;25.90;43.90;;;;;;4722370;30;22121;-84
2023/05/15 13:45:20;;;;;;;7.83;7.10;;;25.20;43.70;;;;;;5040658;22;20484;-85
2023/05/15 13:48:54;;;;;;;7.90;7.20;;;25.00;44.20;;;;;;4966354;28;20826;-84
2023/05/15 13:52:20;;;;;;;9.07;8.17;;;25.10;44.70;;;;;;4993490;28;20441;-84
2023/05/15 13:59:27;;;;;;;8.13;7.43;;;24.80;46.20;;;;;;4897725;29;20444;-85
2023/05/15 14:10:29;;;;;;;9.53;6.73;;;24.80;45.40;;;;;;4871907;29;20443;-84
2023/05/15 14:14:13;;;;;;;5.87;5.30;;;24.40;45.30;;;;;;4863660;29;20870;-84
2023/05/15 14:17:26;;;;;;;8.20;6.80;;;24.50;45.60;;;;;;4831362;29;20473;-82
2023/05/15 14:27:23;;;;;;;11.80;8.90;;;24.10;47.30;;;;;;4739714;30;21060;-86
2023/05/15 14:31:03;;;;;;;11.07;9.53;;;23.90;49.70;;;;;;4757593;30;20470;-83
2023/05/15 14:37:41;;;;;;;13.50;11.10;;;23.70;51.00;;;;;;4865170;29;20475;-84
2023/05/15 14:41:21;;;;;;;13.63;12.17;;;23.70;52.30;;;;;;4866331;29;20498;-82
2023/05/15 14:48:32;;;;;;;16.77;13.13;;;23.70;53.20;;;;;;4870048;29;20452;-83
2023/05/15 14:51:59;;;;;;;;;;;;;;;;;;;;;
2023/05/15 14:55:20;;;;;;;;;;;;;;;;;;;;;
2023/05/15 14:58:26;;;;;;;15.17;12.47;;;23.00;54.80;;;;;;4930481;28;20455;-83
2023/05/15 15:01:47;;;;;;;15.60;11.10;;;23.20;55.10;;;;;;4906447;28;20480;-84
2023/05/15 15:05:21;;;;;;;14.80;11.57;;;23.40;55.30;;;;;;4939541;28;20505;-82
2023/05/15 15:16:09;;;;;;;10.03;9.00;;;23.80;54.10;;;;;;4916279;29;20564;-83
2023/05/15 15:23:23;;;;;;;11.13;8.70;;;23.40;52.40;;;;;;4936900;28;20484;-83
2023/05/15 15:26:32;;;;;;;8.43;7.03;;;23.50;52.60;;;;;;4906004;29;20470;-83
2023/05/15 15:29:40;;;;;;;9.30;7.93;;;23.40;52.80;;;;;;4899744;29;20455;-84
2023/05/15 15:40:11;;;;;;;8.40;6.60;;;23.20;52.00;;;;;;4971753;28;20446;-84
2023/05/15 15:43:33;;;;;;;;;;;;;;;;;;;;;
2023/05/15 15:50:28;;;;;;;8.63;7.10;;;23.20;53.10;;;;;;5031810;28;20443;-83
2023/05/15 16:00:36;;;;;;;12.00;8.37;;;22.60;54.40;;;;;;5015476;28;20507;-85
2023/05/15 16:04:14;;;;;;;8.83;7.80;;;22.50;55.00;;;;;;5004479;28;20617;-84
2023/05/15 16:07:38;;;;;;;9.37;7.10;;;22.50;55.00;;;;;;4933644;28;21881;-84
2023/05/15 16:10:56;;;;;;;;;;;;;;;;;;;;;
2023/05/15 16:14:26;;;;;;;;;;;;;;;;;;;;;
2023/05/15 16:17:29;;;;;;;10.07;8.33;;;22.30;56.00;;;;;;4858883;29;20985;-82
2023/05/15 16:20:46;;;;;;;;;;;;;;;;;;;;;
2023/05/15 16:24:25;;;;;;;12.33;8.90;;;22.20;56.10;;;;;;4899379;29;20487;-84
2023/05/15 16:28:09;;;;;;;11.93;9.20;;;21.90;57.90;;;;;;4844002;29;20569;-82
2023/05/15 16:31:47;;;;;;;12.40;10.10;;;21.80;59.00;;;;;;4881142;29;20472;-81
2023/05/15 16:43:45;;;;;;;10.57;8.80;;;21.50;60.40;;;;;;4918828;29;20491;-83
2023/05/15 16:47:00;;;;;;;;;;;;;;;;;;;;;
2023/05/15 16:54:16;;;;;;;12.60;10.53;;;21.00;62.10;;;;;;4881762;28;20483;-83
2023/05/15 17:00:46;;;;;;;12.40;9.67;;;20.90;63.50;;;;;;4951605;28;20995;-83
2023/05/15 17:07:58;;;;;;;20.43;10.77;;;20.50;63.80;;;;;;4869617;29;20456;-84
2023/05/15 17:14:37;;;;;;;;;;;;;;;;;;;;;
2023/05/15 17:21:17;;;;;;;;;;;;;;;;;;;;;
2023/05/15 17:24:44;;;;;;;14.00;10.90;;;20.30;67.20;;;;;;4858845;29;20505;-84
2023/05/15 17:36:26;;;;;;;16.00;11.63;;;20.30;69.30;;;;;;4790166;29;20875;-83
2023/05/15 17:40:21;;;;;;;14.40;10.43;;;20.20;69.50;;;;;;4832161;29;20469;-82
2023/05/15 17:43:57;;;;;;;;;;;;;;;;;;;;;
2023/05/15 17:47:19;;;;;;;;;;;;;;;;;;;;;
2023/05/15 17:50:49;;;;;;;17.80;11.60;;;20.10;68.80;;;;;;4896729;29;20570;-83
2023/05/15 17:54:28;;;;;;;12.17;9.80;;;19.90;69.00;;;;;;4891223;29;20470;-83
2023/05/15 17:58:16;;;;;;;16.97;11.03;;;20.00;69.20;;;;;;4877802;29;20463;-83
2023/05/15 18:01:40;;;;;;;15.13;10.57;;;20.10;69.00;;;;;;4844976;29;20521;-82
2023/05/15 18:04:56;;;;;;;16.07;10.10;;;20.00;69.40;;;;;;4821707;29;20458;-83
2023/05/15 18:07:58;;;;;;;;;;;;;;;;;;;;;
2023/05/15 18:14:33;;;;;;;19.57;11.60;;;19.70;72.50;;;;;;5113410;22;20492;-83
2023/05/15 18:25:04;;;;;;;17.73;13.03;;;19.50;76.10;;;;;;5003224;28;20482;-84
2023/05/15 18:27:50;;;;;;;16.50;11.40;;;19.30;77.60;;;;;;5017880;28;20450;-84
2023/05/15 18:31:04;;;;;;;;;;;;;;;;;;;;;
2023/05/15 18:34:46;;;;;;;14.30;9.10;;;19.10;78.40;;;;;;5016480;28;20684;-83
2023/05/15 18:38:10;;;;;;;11.83;8.80;;;19.20;78.00;;;;;;4998406;28;20457;-83
2023/05/15 18:42:38;;;;;;;10.47;8.57;;;19.10;77.50;;;;;;4989584;28;20482;-84
2023/05/15 18:49:49;;;;;;;9.80;7.63;;;19.10;79.30;;;;;;4921407;28;20483;-84
2023/05/15 18:53:35;;;;;;;11.80;8.30;;;19.00;80.10;;;;;;4991873;28;20475;-85
2023/05/15 18:57:14;;;;;;;9.20;6.67;;;19.10;80.90;;;;;;4980170;28;20447;-83
2023/05/15 19:01:05;;;;;;;7.30;6.40;;;19.00;81.40;;;;;;4998936;28;20490;-84
2023/05/15 19:07:55;;;;;;;7.50;6.00;;;18.90;81.60;;;;;;5000775;28;20473;-85
2023/05/15 19:19:52;;;;;;;;;;;;;;;;;;;;;
2023/05/15 19:23:11;;;;;;;7.07;5.53;;;18.50;84.20;;;;;;4906160;29;20555;-84
2023/05/15 19:26:45;;;;;;;4.97;4.40;;;18.50;84.20;;;;;;4857198;29;20901;-84
2023/05/15 19:30:03;;;;;;;5.40;4.40;;;18.40;84.30;;;;;;4865122;29;20469;-85
2023/05/15 19:33:30;;;;;;;5.40;4.87;;;18.40;84.20;;;;;;4917697;29;20938;-84
2023/05/15 19:37:12;;;;;;;6.50;4.83;;;18.40;84.80;;;;;;4852712;29;20459;-82
2023/05/15 19:41:01;;;;;;;5.20;4.70;;;18.10;85.60;;;;;;4857318;29;20484;-83
2023/05/15 19:44:32;;;;;;;5.10;4.00;;;18.00;86.10;;;;;;4864093;29;20480;-84
2023/05/15 19:55:20;;;;;;;6.43;3.70;;;17.80;87.20;;;;;;4869430;29;20539;-82
2023/05/15 19:58:33;;;;;;;5.20;4.17;;;17.70;87.60;;;;;;4836893;29;20442;-82
2023/05/15 20:21:07;;;;;;;4.50;3.40;;;17.70;87.60;;;;;;4814725;29;20504;-82
2023/05/15 20:24:42;;;;;;;4.23;3.50;;;17.60;88.50;;;;;;4775635;29;20491;-82
2023/05/15 20:28:00;;;;;;;;;;;;;;;;;;;;;
2023/05/15 20:31:15;;;;;;;3.30;3.00;;;17.40;89.40;;;;;;4787301;29;20456;-83
2023/05/15 20:34:45;;;;;;;;;;;;;;;;;;;;;
2023/05/15 20:38:53;;;;;;;;;;;;;;;;;;;;;
2023/05/15 20:46:12;;;;;;;3.30;2.77;;;16.90;90.00;;;;;;4753395;29;20568;-84
2023/05/15 20:49:40;;;;;;;3.63;3.13;;;17.00;90.00;;;;;;4809180;29;20563;-83
2023/05/15 20:57:12;;;;;;;4.33;2.77;;;17.00;89.50;;;;;;4811005;29;20603;-84
2023/05/15 21:00:41;;;;;;;;;;;;;;;;;;;;;
2023/05/15 21:08:09;;;;;;;;;;;;;;;;;;;;;
2023/05/15 21:11:51;;;;;;;;;;;;;;;;;;;;;
2023/05/15 21:26:38;;;;;;;5.00;3.33;;;16.70;88.50;;;;;;4988471;28;20482;-84
2023/05/15 21:48:05;;;;;;;4.20;3.17;;;16.80;89.60;;;;;;4991334;28;20449;-83
2023/05/15 21:51:56;;;;;;;;;;;;;;;;;;;;;
2023/05/15 21:55:15;;;;;;;;;;;;;;;;;;;;;
2023/05/15 21:58:36;;;;;;;4.50;2.80;;;16.80;89.60;;;;;;4943402;28;20802;-84
2023/05/15 22:02:21;;;;;;;5.10;3.77;;;16.70;89.70;;;;;;4900549;28;20493;-84
2023/05/15 22:17:57;;;;;;;4.20;3.20;;;16.40;90.70;;;;;;4964976;28;20452;-84
2023/05/15 22:21:23;;;;;;;7.30;4.40;;;16.40;91.10;;;;;;4957237;28;20479;-83
2023/05/15 22:24:38;;;;;;;4.83;4.07;;;16.30;91.20;;;;;;4897200;29;21721;-84
2023/05/15 22:38:34;;;;;;;7.10;3.30;;;16.10;92.10;;;;;;4897185;29;21057;-84
2023/05/15 22:42:40;;;;;;;5.33;3.03;;;16.10;92.50;;;;;;4882032;29;20488;-84
2023/05/15 22:53:30;;;;;;;5.87;3.90;;;16.10;93.10;;;;;;4897146;29;20500;-83
2023/05/15 22:57:18;;;;;;;4.03;3.37;;;16.00;93.20;;;;;;4905391;28;20454;-82
2023/05/15 23:00:58;;;;;;;;;;;;;;;;;;;;;
2023/05/15 23:12:29;;;;;;;5.10;3.40;;;15.90;94.40;;;;;;4985591;28;20435;-84
2023/05/15 23:15:30;;;;;;;4.67;3.90;;;15.70;94.70;;;;;;4881136;29;20466;-83
2023/05/15 23:26:53;;;;;;;6.80;2.80;;;15.60;95.70;;;;;;4932507;28;22037;-84
2023/05/15 23:30:28;;;;;;;2.73;2.37;;;15.50;95.90;;;;;;4948637;28;20504;-85
2023/05/15 23:41:25;;;;;;;3.80;2.10;;;15.40;96.00;;;;;;4923535;28;20488;-84
2023/05/15 23:45:00;;;;;;;2.50;2.30;;;15.40;96.30;;;;;;4846209;29;20492;-84
2023/05/15 23:52:18;;;;;;;3.30;2.20;;;15.30;97.80;;;;;;4844178;29;20467;-86
